TimeEST,TemperatureF,Dew PointF,Humidity,Sea Level PressureIn,VisibilityMPH,Wind Direction,Wind SpeedMPH,Gust SpeedMPH,PrecipitationIn,Events,Conditions,WindDirDegrees,DateUTC
12:15 AM,42.8,15.8,34,30.27,10.0,SSW,5.8,-,N/A,,Clear,210,2013-11-15 05:15:00
12:35 AM,42.8,15.8,34,30.26,10.0,SSW,5.8,-,N/A,,Clear,210,2013-11-15 05:35:00
12:55 AM,41.0,15.8,36,30.26,10.0,SW,4.6,-,N/A,,Clear,220,2013-11-15 05:55:00
1:15 AM,41.0,17.6,39,30.26,10.0,SSW,4.6,-,N/A,,Clear,200,2013-11-15 06:15:00
1:35 AM,39.2,17.6,42,30.25,10.0,SSW,5.8,-,N/A,,Clear,200,2013-11-15 06:35:00
1:55 AM,-9999,-9999,N/A,30.26,-9999.0,SSW,5.8,-,N/A,,Unknown,210,2013-11-15 06:55:00
2:15 AM,-9999,-9999,N/A,-9999,-9999.0,North,-9999.0,-,N/A,,Unknown,0,2013-11-15 07:15:00
2:35 AM,-9999,-9999,N/A,-9999,-9999.0,North,-9999.0,-,N/A,,Unknown,0,2013-11-15 07:35:00
2:55 AM,37.4,17.6,45,30.25,-9999.0,South,5.8,-,N/A,,Unknown,190,2013-11-15 07:55:00
3:15 AM,-9999,-9999,N/A,-9999,-9999.0,North,-9999.0,-,N/A,,Unknown,0,2013-11-15 08:15:00
3:35 AM,35.6,19.4,52,30.24,10.0,SSW,6.9,-,N/A,,Unknown,200,2013-11-15 08:35:00
3:55 AM,35.6,19.4,52,30.24,10.0,SSW,5.8,-,N/A,,Clear,200,2013-11-15 08:55:00
4:15 AM,35.6,19.4,52,30.24,10.0,South,5.8,-,N/A,,Clear,190,2013-11-15 09:15:00
4:35 AM,37.4,17.6,45,30.24,10.0,SSW,5.8,-,N/A,,Clear,210,2013-11-15 09:35:00
4:55 AM,35.6,19.4,52,30.25,10.0,SSW,4.6,-,N/A,,Unknown,210,2013-11-15 09:55:00
5:15 AM,33.8,19.4,56,30.26,10.0,SSW,5.8,-,N/A,,Clear,200,2013-11-15 10:15:00
5:35 AM,33.8,19.4,56,30.25,10.0,South,6.9,-,N/A,,Clear,190,2013-11-15 10:35:00
5:55 AM,35.6,19.4,52,30.25,10.0,South,5.8,-,N/A,,Clear,190,2013-11-15 10:55:00
6:15 AM,35.6,19.4,52,30.25,10.0,SSW,3.5,-,N/A,,Clear,210,2013-11-15 11:15:00
6:35 AM,33.8,19.4,56,30.26,10.0,SSW,4.6,-,N/A,,Unknown,200,2013-11-15 11:35:00
6:55 AM,35.6,19.4,52,30.27,10.0,SSW,4.6,-,N/A,,Clear,200,2013-11-15 11:55:00
7:15 AM,35.6,19.4,52,30.27,10.0,SSW,4.6,-,N/A,,Clear,200,2013-11-15 12:15:00
7:35 AM,37.4,19.4,48,30.29,10.0,SSW,4.6,-,N/A,,Clear,210,2013-11-15 12:35:00
7:55 AM,39.2,19.4,45,30.28,10.0,SSW,3.5,-,N/A,,Clear,210,2013-11-15 12:55:00
8:15 AM,42.8,19.4,39,30.28,10.0,SSW,4.6,-,N/A,,Clear,200,2013-11-15 13:15:00
8:35 AM,42.8,19.4,39,30.29,10.0,SSW,4.6,-,N/A,,Clear,200,2013-11-15 13:35:00
8:55 AM,44.6,19.4,37,30.29,10.0,SSW,4.6,-,N/A,,Clear,200,2013-11-15 13:55:00
9:15 AM,44.6,19.4,37,30.29,10.0,SSW,4.6,-,N/A,,Clear,210,2013-11-15 14:15:00
9:35 AM,46.4,19.4,34,30.30,10.0,SSW,4.6,-,N/A,,Clear,210,2013-11-15 14:35:00
9:55 AM,50.0,19.4,30,30.29,10.0,South,4.6,-,N/A,,Clear,190,2013-11-15 14:55:00
10:15 AM,53.6,17.6,24,30.29,10.0,South,5.8,-,N/A,,Clear,190,2013-11-15 15:15:00
10:35 AM,55.4,15.8,21,30.29,10.0,South,9.2,-,N/A,,Clear,180,2013-11-15 15:35:00
10:55 AM,55.4,14.0,20,30.27,10.0,SW,6.9,-,N/A,,Clear,230,2013-11-15 15:55:00
11:15 AM,55.4,15.8,21,30.27,10.0,South,5.8,-,N/A,,Clear,190,2013-11-15 16:15:00
11:35 AM,55.4,14.0,20,30.26,10.0,South,9.2,-,N/A,,Clear,180,2013-11-15 16:35:00
11:55 AM,55.4,14.0,20,30.25,10.0,South,8.1,-,N/A,,Clear,190,2013-11-15 16:55:00
12:15 PM,57.2,14.0,18,30.25,10.0,SSW,9.2,-,N/A,,Clear,200,2013-11-15 17:15:00
12:35 PM,57.2,12.2,17,30.25,10.0,SSW,9.2,-,N/A,,Clear,200,2013-11-15 17:35:00
12:55 PM,57.2,14.0,18,30.24,10.0,SSW,8.1,-,N/A,,Clear,200,2013-11-15 17:55:00
1:15 PM,59.0,12.2,16,30.22,10.0,SSW,8.1,-,N/A,,Clear,210,2013-11-15 18:15:00
1:35 PM,59.0,12.2,16,30.21,10.0,SSW,10.4,-,N/A,,Clear,200,2013-11-15 18:35:00
1:55 PM,60.8,15.8,17,30.21,10.0,SSW,4.6,-,N/A,,Clear,210,2013-11-15 18:55:00
2:15 PM,60.8,19.4,20,30.21,10.0,SSW,8.1,-,N/A,,Clear,200,2013-11-15 19:15:00
2:35 PM,60.8,24.8,25,30.19,10.0,SSW,6.9,-,N/A,,Clear,200,2013-11-15 19:35:00
2:55 PM,62.6,26.6,26,30.20,10.0,SSW,8.1,-,N/A,,Scattered Clouds,210,2013-11-15 19:55:00
3:15 PM,62.6,26.6,26,30.19,10.0,SSW,9.2,-,N/A,,Scattered Clouds,200,2013-11-15 20:15:00
3:35 PM,60.8,26.6,27,30.20,10.0,SSW,5.8,-,N/A,,Clear,210,2013-11-15 20:35:00
3:55 PM,60.8,28.4,29,30.19,10.0,SSW,5.8,-,N/A,,Clear,210,2013-11-15 20:55:00
4:15 PM,60.8,28.4,29,30.19,10.0,SSW,5.8,-,N/A,,Clear,210,2013-11-15 21:15:00
4:35 PM,60.8,30.2,31,30.20,10.0,SSW,3.5,-,N/A,,Scattered Clouds,210,2013-11-15 21:35:00
4:55 PM,59.0,30.2,34,30.20,10.0,South,4.6,-,N/A,,Mostly Cloudy,190,2013-11-15 21:55:00
5:15 PM,57.2,32.0,38,30.19,10.0,Calm,Calm,-,N/A,,Overcast,0,2013-11-15 22:15:00
5:35 PM,57.2,30.2,36,30.20,10.0,Calm,Calm,-,N/A,,Overcast,0,2013-11-15 22:35:00
5:55 PM,57.2,32.0,38,30.20,10.0,Calm,Calm,-,N/A,,Overcast,0,2013-11-15 22:55:00
6:15 PM,57.2,33.8,41,30.20,10.0,Calm,Calm,-,N/A,,Overcast,0,2013-11-15 23:15:00
6:35 PM,57.2,32.0,38,30.20,10.0,Calm,Calm,-,N/A,,Mostly Cloudy,0,2013-11-15 23:35:00
6:55 PM,57.2,32.0,38,30.21,10.0,Calm,Calm,-,N/A,,Overcast,0,2013-11-15 23:55:00
7:15 PM,57.2,33.8,41,30.21,10.0,Calm,Calm,-,N/A,,Overcast,0,2013-11-16 00:15:00
7:35 PM,53.6,33.8,47,30.21,10.0,Calm,Calm,-,N/A,,Mostly Cloudy,0,2013-11-16 00:35:00
7:55 PM,55.4,33.8,44,30.21,10.0,Calm,Calm,-,N/A,,Mostly Cloudy,0,2013-11-16 00:55:00
8:15 PM,55.4,35.6,47,30.20,10.0,Calm,Calm,-,N/A,,Scattered Clouds,0,2013-11-16 01:15:00
8:35 PM,55.4,35.6,47,30.21,10.0,Calm,Calm,-,N/A,,Scattered Clouds,0,2013-11-16 01:35:00
8:55 PM,55.4,35.6,47,30.21,10.0,Calm,Calm,-,N/A,,Mostly Cloudy,0,2013-11-16 01:55:00
9:15 PM,55.4,35.6,47,30.21,10.0,Calm,Calm,-,N/A,,Overcast,0,2013-11-16 02:15:00
9:35 PM,55.4,37.4,51,30.22,10.0,West,3.5,-,N/A,Rain,Light Rain,270,2013-11-16 02:35:00
9:55 PM,55.4,41.0,58,30.23,10.0,Calm,Calm,-,N/A,Rain,Light Rain,0,2013-11-16 02:55:00
10:15 PM,55.4,42.8,63,30.23,10.0,Calm,Calm,-,N/A,,Drizzle,0,2013-11-16 03:15:00
10:35 PM,51.8,48.2,88,30.23,10.0,Calm,Calm,-,N/A,Rain,Light Rain,0,2013-11-16 03:35:00
10:55 PM,51.8,48.2,88,30.23,10.0,Calm,Calm,-,N/A,,Drizzle,0,2013-11-16 03:55:00
11:15 PM,51.8,48.2,88,30.24,10.0,Calm,Calm,-,0.02,Rain,Light Rain,0,2013-11-16 04:15:00
11:35 PM,51.8,50.0,94,30.24,7.0,Calm,Calm,-,0.02,Rain,Light Rain,0,2013-11-16 04:35:00
11:55 PM,51.8,50.0,94,30.24,7.0,Calm,Calm,-,0.01,Rain,Light Rain,0,2013-11-16 04:55:00